sensor_id;sensor_type;location;lat;lon;timestamp;temperature;humidity
21568;DHT22;10944;42.590;12.630;2022-11-15T00:00:27;8.20;99.90
21568;DHT22;10944;42.590;12.630;2022-11-15T00:02:53;8.20;99.90
21568;DHT22;10944;42.590;12.630;2022-11-15T00:05:19;8.10;99.90
21568;DHT22;10944;42.590;12.630;2022-11-15T00:07:45;8.00;99.90
21568;DHT22;10944;42.590;12.630;2022-11-15T00:10:11;7.90;99.90
21568;DHT22;10944;42.590;12.630;2022-11-15T00:12:37;7.90;99.90
21568;DHT22;10944;42.590;12.630;2022-11-15T00:15:03;7.90;99.90
21568;DHT22;10944;42.590;12.630;2022-11-15T00:17:29;7.80;99.90
21568;DHT22;10944;42.590;12.630;2022-11-15T00:19:55;7.80;99.90
21568;DHT22;10944;42.590;12.630;2022-11-15T00:22:21;7.90;99.90
21568;DHT22;10944;42.590;12.630;2022-11-15T00:24:46;7.90;99.90
21568;DHT22;10944;42.590;12.630;2022-11-15T00:27:12;7.90;99.90
21568;DHT22;10944;42.590;12.630;2022-11-15T00:29:38;7.90;99.90
21568;DHT22;10944;42.590;12.630;2022-11-15T00:32:09;8.00;99.90
21568;DHT22;10944;42.590;12.630;2022-11-15T00:34:34;8.00;99.90
21568;DHT22;10944;42.590;12.630;2022-11-15T00:37:00;7.90;99.90
21568;DHT22;10944;42.590;12.630;2022-11-15T00:39:26;7.90;99.90
21568;DHT22;10944;42.590;12.630;2022-11-15T00:41:51;7.90;99.90
21568;DHT22;10944;42.590;12.630;2022-11-15T00:44:17;7.90;99.90
21568;DHT22;10944;42.590;12.630;2022-11-15T00:46:43;7.80;99.90
21568;DHT22;10944;42.590;12.630;2022-11-15T00:49:08;7.80;99.90
21568;DHT22;10944;42.590;12.630;2022-11-15T00:51:34;7.70;99.90
21568;DHT22;10944;42.590;12.630;2022-11-15T00:54:00;7.70;99.90
21568;DHT22;10944;42.590;12.630;2022-11-15T00:56:26;7.70;99.90
21568;DHT22;10944;42.590;12.630;2022-11-15T00:58:52;7.60;99.90
21568;DHT22;10944;42.590;12.630;2022-11-15T01:01:18;7.70;99.90
21568;DHT22;10944;42.590;12.630;2022-11-15T01:03:44;7.80;99.90
21568;DHT22;10944;42.590;12.630;2022-11-15T01:06:11;7.90;99.90
21568;DHT22;10944;42.590;12.630;2022-11-15T01:08:41;8.10;99.90
21568;DHT22;10944;42.590;12.630;2022-11-15T01:11:11;8.20;99.90
21568;DHT22;10944;42.590;12.630;2022-11-15T01:13:38;8.30;99.90
21568;DHT22;10944;42.590;12.630;2022-11-15T01:16:08;8.30;99.90
21568;DHT22;10944;42.590;12.630;2022-11-15T01:18:34;8.30;99.90
21568;DHT22;10944;42.590;12.630;2022-11-15T01:21:11;8.30;99.90
21568;DHT22;10944;42.590;12.630;2022-11-15T01:23:38;8.30;99.90
21568;DHT22;10944;42.590;12.630;2022-11-15T01:26:05;8.40;99.90
21568;DHT22;10944;42.590;12.630;2022-11-15T01:28:36;8.30;99.90
21568;DHT22;10944;42.590;12.630;2022-11-15T01:31:04;8.30;99.90
21568;DHT22;10944;42.590;12.630;2022-11-15T01:33:33;8.40;99.90
21568;DHT22;10944;42.590;12.630;2022-11-15T01:36:06;8.40;99.90
21568;DHT22;10944;42.590;12.630;2022-11-15T01:38:33;8.50;99.90
21568;DHT22;10944;42.590;12.630;2022-11-15T01:40:59;8.40;99.90
21568;DHT22;10944;42.590;12.630;2022-11-15T01:43:30;8.30;99.90
21568;DHT22;10944;42.590;12.630;2022-11-15T01:46:04;8.10;99.90
21568;DHT22;10944;42.590;12.630;2022-11-15T01:48:34;8.00;99.90
21568;DHT22;10944;42.590;12.630;2022-11-15T01:51:04;7.80;99.90
21568;DHT22;10944;42.590;12.630;2022-11-15T01:53:32;7.80;99.90
21568;DHT22;10944;42.590;12.630;2022-11-15T01:56:04;7.80;99.90
21568;DHT22;10944;42.590;12.630;2022-11-15T01:58:31;7.80;99.90
21568;DHT22;10944;42.590;12.630;2022-11-15T02:00:57;7.70;99.90
21568;DHT22;10944;42.590;12.630;2022-11-15T02:03:29;7.70;99.90
21568;DHT22;10944;42.590;12.630;2022-11-15T02:05:58;7.70;99.90
21568;DHT22;10944;42.590;12.630;2022-11-15T02:08:24;7.70;99.90
21568;DHT22;10944;42.590;12.630;2022-11-15T02:10:50;7.70;99.90
21568;DHT22;10944;42.590;12.630;2022-11-15T02:13:16;7.60;99.90
21568;DHT22;10944;42.590;12.630;2022-11-15T02:18:32;7.60;99.90
21568;DHT22;10944;42.590;12.630;2022-11-15T02:34:30;8.30;99.90
21568;DHT22;10944;42.590;12.630;2022-11-15T02:40:11;8.30;99.90
21568;DHT22;10944;42.590;12.630;2022-11-15T02:42:55;8.30;99.90
21568;DHT22;10944;42.590;12.630;2022-11-15T02:45:44;8.20;99.90
21568;DHT22;10944;42.590;12.630;2022-11-15T02:48:12;8.30;99.90
21568;DHT22;10944;42.590;12.630;2022-11-15T02:50:38;8.30;99.90
21568;DHT22;10944;42.590;12.630;2022-11-15T02:53:04;8.30;99.90
21568;DHT22;10944;42.590;12.630;2022-11-15T02:55:35;8.30;99.90
21568;DHT22;10944;42.590;12.630;2022-11-15T02:58:29;8.20;99.90
21568;DHT22;10944;42.590;12.630;2022-11-15T03:04:02;8.10;99.90
21568;DHT22;10944;42.590;12.630;2022-11-15T03:06:55;8.00;99.90
21568;DHT22;10944;42.590;12.630;2022-11-15T03:09:34;7.90;99.90
21568;DHT22;10944;42.590;12.630;2022-11-15T03:12:15;7.90;99.90
21568;DHT22;10944;42.590;12.630;2022-11-15T03:15:00;7.80;99.90
21568;DHT22;10944;42.590;12.630;2022-11-15T03:17:35;7.80;99.90
21568;DHT22;10944;42.590;12.630;2022-11-15T03:20:04;7.70;99.90
21568;DHT22;10944;42.590;12.630;2022-11-15T03:22:35;7.70;99.90
21568;DHT22;10944;42.590;12.630;2022-11-15T03:25:05;7.70;99.90
21568;DHT22;10944;42.590;12.630;2022-11-15T03:27:36;7.90;99.90
21568;DHT22;10944;42.590;12.630;2022-11-15T03:30:06;8.10;99.90
21568;DHT22;10944;42.590;12.630;2022-11-15T03:32:37;8.20;99.90
21568;DHT22;10944;42.590;12.630;2022-11-15T03:35:25;8.30;99.90
21568;DHT22;10944;42.590;12.630;2022-11-15T03:38:11;8.30;99.90
21568;DHT22;10944;42.590;12.630;2022-11-15T03:40:46;8.20;99.90
21568;DHT22;10944;42.590;12.630;2022-11-15T03:46:19;7.90;99.90
21568;DHT22;10944;42.590;12.630;2022-11-15T03:49:10;7.90;99.90
21568;DHT22;10944;42.590;12.630;2022-11-15T03:51:37;7.90;99.90
21568;DHT22;10944;42.590;12.630;2022-11-15T03:54:04;8.00;99.90
21568;DHT22;10944;42.590;12.630;2022-11-15T03:56:30;7.90;99.90
21568;DHT22;10944;42.590;12.630;2022-11-15T03:58:55;7.90;99.90
21568;DHT22;10944;42.590;12.630;2022-11-15T04:01:21;7.90;99.90
21568;DHT22;10944;42.590;12.630;2022-11-15T04:03:47;7.90;99.90
21568;DHT22;10944;42.590;12.630;2022-11-15T04:06:12;7.90;99.90
21568;DHT22;10944;42.590;12.630;2022-11-15T04:08:38;7.90;99.90
21568;DHT22;10944;42.590;12.630;2022-11-15T04:11:04;8.00;99.90
21568;DHT22;10944;42.590;12.630;2022-11-15T04:13:29;8.10;99.90
21568;DHT22;10944;42.590;12.630;2022-11-15T04:15:55;8.20;99.90
21568;DHT22;10944;42.590;12.630;2022-11-15T04:18:21;8.20;99.90
21568;DHT22;10944;42.590;12.630;2022-11-15T04:20:47;8.20;99.90
21568;DHT22;10944;42.590;12.630;2022-11-15T04:23:31;8.20;99.90
21568;DHT22;10944;42.590;12.630;2022-11-15T04:26:18;8.20;99.90
21568;DHT22;10944;42.590;12.630;2022-11-15T04:28:45;8.10;99.90
21568;DHT22;10944;42.590;12.630;2022-11-15T04:31:29;8.00;99.90
21568;DHT22;10944;42.590;12.630;2022-11-15T04:33:54;7.90;99.90
21568;DHT22;10944;42.590;12.630;2022-11-15T04:36:21;7.90;99.90
21568;DHT22;10944;42.590;12.630;2022-11-15T04:39:05;7.90;99.90
21568;DHT22;10944;42.590;12.630;2022-11-15T04:41:31;7.80;99.90
21568;DHT22;10944;42.590;12.630;2022-11-15T04:43:57;7.70;99.90
21568;DHT22;10944;42.590;12.630;2022-11-15T04:46:23;7.60;99.90
21568;DHT22;10944;42.590;12.630;2022-11-15T04:48:50;7.50;99.90
21568;DHT22;10944;42.590;12.630;2022-11-15T04:51:16;7.50;99.90
21568;DHT22;10944;42.590;12.630;2022-11-15T04:53:42;7.60;99.90
21568;DHT22;10944;42.590;12.630;2022-11-15T04:56:08;7.70;99.90
21568;DHT22;10944;42.590;12.630;2022-11-15T04:58:34;7.80;99.90
21568;DHT22;10944;42.590;12.630;2022-11-15T05:01:15;7.90;99.90
21568;DHT22;10944;42.590;12.630;2022-11-15T05:03:42;8.00;99.90
21568;DHT22;10944;42.590;12.630;2022-11-15T05:06:27;8.00;99.90
21568;DHT22;10944;42.590;12.630;2022-11-15T05:08:53;8.10;99.90
21568;DHT22;10944;42.590;12.630;2022-11-15T05:11:18;8.20;99.90
21568;DHT22;10944;42.590;12.630;2022-11-15T05:13:44;8.10;99.90
21568;DHT22;10944;42.590;12.630;2022-11-15T05:16:10;8.20;99.90
21568;DHT22;10944;42.590;12.630;2022-11-15T05:18:36;8.10;99.90
21568;DHT22;10944;42.590;12.630;2022-11-15T05:21:13;8.10;99.90
21568;DHT22;10944;42.590;12.630;2022-11-15T05:23:40;7.90;99.90
21568;DHT22;10944;42.590;12.630;2022-11-15T05:26:06;7.80;99.90
21568;DHT22;10944;42.590;12.630;2022-11-15T05:28:33;7.70;99.90
21568;DHT22;10944;42.590;12.630;2022-11-15T05:31:13;7.60;99.90
21568;DHT22;10944;42.590;12.630;2022-11-15T05:33:40;7.80;99.90
21568;DHT22;10944;42.590;12.630;2022-11-15T05:38:42;8.10;99.90
21568;DHT22;10944;42.590;12.630;2022-11-15T05:41:08;8.10;99.90
21568;DHT22;10944;42.590;12.630;2022-11-15T05:43:36;8.10;99.90
21568;DHT22;10944;42.590;12.630;2022-11-15T05:46:03;8.20;99.90
21568;DHT22;10944;42.590;12.630;2022-11-15T05:48:30;8.20;99.90
21568;DHT22;10944;42.590;12.630;2022-11-15T05:50:56;8.20;99.90
21568;DHT22;10944;42.590;12.630;2022-11-15T05:53:23;8.30;99.90
21568;DHT22;10944;42.590;12.630;2022-11-15T05:55:50;8.20;99.90
21568;DHT22;10944;42.590;12.630;2022-11-15T05:58:17;8.20;99.90
21568;DHT22;10944;42.590;12.630;2022-11-15T06:00:43;8.10;99.90
21568;DHT22;10944;42.590;12.630;2022-11-15T06:03:09;8.10;99.90
21568;DHT22;10944;42.590;12.630;2022-11-15T06:05:36;8.20;99.90
21568;DHT22;10944;42.590;12.630;2022-11-15T06:08:01;8.10;99.90
21568;DHT22;10944;42.590;12.630;2022-11-15T06:10:27;8.00;99.90
21568;DHT22;10944;42.590;12.630;2022-11-15T06:13:04;7.90;99.90
21568;DHT22;10944;42.590;12.630;2022-11-15T06:15:29;7.90;99.90
21568;DHT22;10944;42.590;12.630;2022-11-15T06:17:57;7.80;99.90
21568;DHT22;10944;42.590;12.630;2022-11-15T06:20:27;7.80;99.90
21568;DHT22;10944;42.590;12.630;2022-11-15T06:23:00;7.70;99.90
21568;DHT22;10944;42.590;12.630;2022-11-15T06:25:30;7.70;99.90
21568;DHT22;10944;42.590;12.630;2022-11-15T06:27:57;7.70;99.90
21568;DHT22;10944;42.590;12.630;2022-11-15T06:30:25;7.80;99.90
21568;DHT22;10944;42.590;12.630;2022-11-15T06:32:51;7.90;99.90
21568;DHT22;10944;42.590;12.630;2022-11-15T06:35:17;8.00;99.90
21568;DHT22;10944;42.590;12.630;2022-11-15T06:37:43;8.20;99.90
21568;DHT22;10944;42.590;12.630;2022-11-15T06:40:10;8.40;99.90
21568;DHT22;10944;42.590;12.630;2022-11-15T06:42:35;8.60;99.90
21568;DHT22;10944;42.590;12.630;2022-11-15T06:45:02;8.70;99.90
21568;DHT22;10944;42.590;12.630;2022-11-15T06:47:27;8.70;99.90
21568;DHT22;10944;42.590;12.630;2022-11-15T06:49:53;8.70;99.90
21568;DHT22;10944;42.590;12.630;2022-11-15T06:52:19;8.70;99.90
21568;DHT22;10944;42.590;12.630;2022-11-15T06:54:45;8.70;99.90
21568;DHT22;10944;42.590;12.630;2022-11-15T06:57:11;8.70;99.90
21568;DHT22;10944;42.590;12.630;2022-11-15T06:59:37;8.60;99.90
21568;DHT22;10944;42.590;12.630;2022-11-15T07:02:03;8.60;99.90
21568;DHT22;10944;42.590;12.630;2022-11-15T07:04:29;8.60;99.90
21568;DHT22;10944;42.590;12.630;2022-11-15T07:06:54;8.80;99.90
21568;DHT22;10944;42.590;12.630;2022-11-15T07:09:20;8.90;99.90
21568;DHT22;10944;42.590;12.630;2022-11-15T07:11:46;9.00;99.90
21568;DHT22;10944;42.590;12.630;2022-11-15T07:14:12;9.10;99.90
21568;DHT22;10944;42.590;12.630;2022-11-15T07:16:38;9.30;99.90
21568;DHT22;10944;42.590;12.630;2022-11-15T07:19:04;9.40;99.90
21568;DHT22;10944;42.590;12.630;2022-11-15T07:21:29;9.50;99.90
21568;DHT22;10944;42.590;12.630;2022-11-15T07:23:55;9.50;99.90
21568;DHT22;10944;42.590;12.630;2022-11-15T07:26:21;9.50;99.90
21568;DHT22;10944;42.590;12.630;2022-11-15T07:28:47;9.50;99.90
21568;DHT22;10944;42.590;12.630;2022-11-15T07:31:12;9.60;99.90
21568;DHT22;10944;42.590;12.630;2022-11-15T07:33:38;9.60;99.90
21568;DHT22;10944;42.590;12.630;2022-11-15T07:36:05;9.60;99.90
21568;DHT22;10944;42.590;12.630;2022-11-15T07:38:32;9.70;99.90
21568;DHT22;10944;42.590;12.630;2022-11-15T07:41:00;9.80;99.90
21568;DHT22;10944;42.590;12.630;2022-11-15T07:43:26;9.90;99.90
21568;DHT22;10944;42.590;12.630;2022-11-15T07:45:53;9.90;99.90
21568;DHT22;10944;42.590;12.630;2022-11-15T07:48:19;10.00;99.90
21568;DHT22;10944;42.590;12.630;2022-11-15T07:50:45;10.00;99.90
21568;DHT22;10944;42.590;12.630;2022-11-15T07:53:11;10.00;99.90
21568;DHT22;10944;42.590;12.630;2022-11-15T07:55:37;10.00;99.90
21568;DHT22;10944;42.590;12.630;2022-11-15T07:58:06;10.00;99.90
21568;DHT22;10944;42.590;12.630;2022-11-15T08:00:33;10.00;99.90
21568;DHT22;10944;42.590;12.630;2022-11-15T08:03:13;10.00;99.90
21568;DHT22;10944;42.590;12.630;2022-11-15T08:05:40;10.00;99.90
21568;DHT22;10944;42.590;12.630;2022-11-15T08:08:07;10.00;99.90
21568;DHT22;10944;42.590;12.630;2022-11-15T08:10:34;10.10;99.90
21568;DHT22;10944;42.590;12.630;2022-11-15T08:13:08;10.10;99.90
21568;DHT22;10944;42.590;12.630;2022-11-15T08:15:35;10.20;99.90
21568;DHT22;10944;42.590;12.630;2022-11-15T08:18:05;10.20;99.90
21568;DHT22;10944;42.590;12.630;2022-11-15T08:20:31;10.40;99.90
21568;DHT22;10944;42.590;12.630;2022-11-15T08:22:58;10.50;99.90
21568;DHT22;10944;42.590;12.630;2022-11-15T08:25:26;10.40;99.90
21568;DHT22;10944;42.590;12.630;2022-11-15T08:27:57;10.20;99.90
21568;DHT22;10944;42.590;12.630;2022-11-15T08:30:24;10.10;99.90
21568;DHT22;10944;42.590;12.630;2022-11-15T08:32:51;10.10;99.90
21568;DHT22;10944;42.590;12.630;2022-11-15T08:35:18;10.10;99.90
21568;DHT22;10944;42.590;12.630;2022-11-15T08:37:44;10.00;99.90
21568;DHT22;10944;42.590;12.630;2022-11-15T08:40:10;10.10;99.90
21568;DHT22;10944;42.590;12.630;2022-11-15T08:42:36;10.20;99.90
21568;DHT22;10944;42.590;12.630;2022-11-15T08:45:03;10.30;99.90
21568;DHT22;10944;42.590;12.630;2022-11-15T08:47:29;10.40;99.90
21568;DHT22;10944;42.590;12.630;2022-11-15T08:49:54;10.50;99.90
21568;DHT22;10944;42.590;12.630;2022-11-15T08:52:20;10.70;99.90
21568;DHT22;10944;42.590;12.630;2022-11-15T08:54:46;10.70;99.90
21568;DHT22;10944;42.590;12.630;2022-11-15T08:57:12;10.80;99.90
21568;DHT22;10944;42.590;12.630;2022-11-15T08:59:38;10.90;99.90
21568;DHT22;10944;42.590;12.630;2022-11-15T09:02:04;10.90;99.90
21568;DHT22;10944;42.590;12.630;2022-11-15T09:04:30;11.00;99.90
21568;DHT22;10944;42.590;12.630;2022-11-15T09:06:56;11.00;99.90
21568;DHT22;10944;42.590;12.630;2022-11-15T09:09:22;11.10;99.90
21568;DHT22;10944;42.590;12.630;2022-11-15T09:11:47;11.20;99.90
21568;DHT22;10944;42.590;12.630;2022-11-15T09:14:14;11.30;99.90
21568;DHT22;10944;42.590;12.630;2022-11-15T09:16:40;11.40;99.90
21568;DHT22;10944;42.590;12.630;2022-11-15T09:19:06;11.50;99.90
21568;DHT22;10944;42.590;12.630;2022-11-15T09:21:32;11.50;99.90
21568;DHT22;10944;42.590;12.630;2022-11-15T09:23:58;11.50;99.90
21568;DHT22;10944;42.590;12.630;2022-11-15T09:26:24;11.50;99.90
21568;DHT22;10944;42.590;12.630;2022-11-15T09:28:50;11.50;99.90
21568;DHT22;10944;42.590;12.630;2022-11-15T09:31:16;11.60;99.90
21568;DHT22;10944;42.590;12.630;2022-11-15T09:33:45;11.60;99.90
21568;DHT22;10944;42.590;12.630;2022-11-15T09:36:11;11.50;99.90
21568;DHT22;10944;42.590;12.630;2022-11-15T09:38:37;11.50;99.90
21568;DHT22;10944;42.590;12.630;2022-11-15T09:49:17;11.60;99.90
21568;DHT22;10944;42.590;12.630;2022-11-15T09:51:49;11.70;99.90
21568;DHT22;10944;42.590;12.630;2022-11-15T09:54:37;11.70;99.90
21568;DHT22;10944;42.590;12.630;2022-11-15T10:00:12;11.70;99.90
21568;DHT22;10944;42.590;12.630;2022-11-15T10:05:26;11.60;99.90
21568;DHT22;10944;42.590;12.630;2022-11-15T10:11:00;11.40;99.90
21568;DHT22;10944;42.590;12.630;2022-11-15T10:13:30;11.20;99.90
21568;DHT22;10944;42.590;12.630;2022-11-15T10:24:27;11.00;99.90
21568;DHT22;10944;42.590;12.630;2022-11-15T10:26:56;11.20;99.90
21568;DHT22;10944;42.590;12.630;2022-11-15T10:29:24;11.20;99.90
21568;DHT22;10944;42.590;12.630;2022-11-15T10:31:50;11.30;99.90
21568;DHT22;10944;42.590;12.630;2022-11-15T10:34:21;11.40;99.90
21568;DHT22;10944;42.590;12.630;2022-11-15T10:37:00;11.40;99.90
21568;DHT22;10944;42.590;12.630;2022-11-15T10:39:27;11.40;99.90
21568;DHT22;10944;42.590;12.630;2022-11-15T10:41:54;11.50;99.90
21568;DHT22;10944;42.590;12.630;2022-11-15T10:44:28;11.50;99.90
21568;DHT22;10944;42.590;12.630;2022-11-15T10:49:25;11.70;99.90
21568;DHT22;10944;42.590;12.630;2022-11-15T10:54:30;11.90;99.90
21568;DHT22;10944;42.590;12.630;2022-11-15T10:57:00;11.80;99.90
21568;DHT22;10944;42.590;12.630;2022-11-15T10:59:32;11.80;99.90
21568;DHT22;10944;42.590;12.630;2022-11-15T11:01:59;11.80;99.90
21568;DHT22;10944;42.590;12.630;2022-11-15T11:04:25;12.00;99.90
21568;DHT22;10944;42.590;12.630;2022-11-15T11:06:57;12.20;99.90
21568;DHT22;10944;42.590;12.630;2022-11-15T11:11:55;12.30;99.90
21568;DHT22;10944;42.590;12.630;2022-11-15T11:14:29;12.40;99.90
21568;DHT22;10944;42.590;12.630;2022-11-15T11:17:16;12.40;99.90
21568;DHT22;10944;42.590;12.630;2022-11-15T11:19:55;12.50;99.90
21568;DHT22;10944;42.590;12.630;2022-11-15T11:36:48;12.50;99.90
21568;DHT22;10944;42.590;12.630;2022-11-15T11:42:13;12.50;99.90
21568;DHT22;10944;42.590;12.630;2022-11-15T11:44:57;12.40;99.90
21568;DHT22;10944;42.590;12.630;2022-11-15T11:47:46;12.50;99.90
21568;DHT22;10944;42.590;12.630;2022-11-15T11:50:16;12.60;99.90
21568;DHT22;10944;42.590;12.630;2022-11-15T12:01:32;12.90;99.90
21568;DHT22;10944;42.590;12.630;2022-11-15T12:12:15;12.80;99.90
21568;DHT22;10944;42.590;12.630;2022-11-15T12:14:56;12.80;99.90
21568;DHT22;10944;42.590;12.630;2022-11-15T12:17:28;12.80;99.90
21568;DHT22;10944;42.590;12.630;2022-11-15T12:20:03;12.60;99.90
21568;DHT22;10944;42.590;12.630;2022-11-15T12:23:00;12.40;99.90
21568;DHT22;10944;42.590;12.630;2022-11-15T12:25:45;12.20;99.90
21568;DHT22;10944;42.590;12.630;2022-11-15T12:28:15;12.10;99.90
21568;DHT22;10944;42.590;12.630;2022-11-15T12:30:56;12.10;99.90
21568;DHT22;10944;42.590;12.630;2022-11-15T12:33:43;12.10;99.90
21568;DHT22;10944;42.590;12.630;2022-11-15T12:36:29;12.20;99.90
21568;DHT22;10944;42.590;12.630;2022-11-15T12:39:01;12.30;99.90
21568;DHT22;10944;42.590;12.630;2022-11-15T12:41:41;12.30;99.90
21568;DHT22;10944;42.590;12.630;2022-11-15T12:59:57;12.40;99.90
21568;DHT22;10944;42.590;12.630;2022-11-15T13:02:26;12.50;99.90
21568;DHT22;10944;42.590;12.630;2022-11-15T13:04:55;12.50;99.90
21568;DHT22;10944;42.590;12.630;2022-11-15T13:15:37;12.50;99.90
21568;DHT22;10944;42.590;12.630;2022-11-15T13:18:42;12.40;99.90
21568;DHT22;10944;42.590;12.630;2022-11-15T13:21:23;12.40;99.90
21568;DHT22;10944;42.590;12.630;2022-11-15T13:24:17;12.40;99.90
21568;DHT22;10944;42.590;12.630;2022-11-15T13:26:43;12.40;99.90
21568;DHT22;10944;42.590;12.630;2022-11-15T13:29:16;12.40;99.90
21568;DHT22;10944;42.590;12.630;2022-11-15T13:31:43;12.40;99.90
21568;DHT22;10944;42.590;12.630;2022-11-15T13:34:30;12.40;99.90
21568;DHT22;10944;42.590;12.630;2022-11-15T13:37:02;12.40;99.90
21568;DHT22;10944;42.590;12.630;2022-11-15T13:41:53;12.40;99.90
21568;DHT22;10944;42.590;12.630;2022-11-15T13:44:30;12.50;99.90
21568;DHT22;10944;42.590;12.630;2022-11-15T13:47:13;12.50;99.90
21568;DHT22;10944;42.590;12.630;2022-11-15T13:49:39;12.60;99.90
21568;DHT22;10944;42.590;12.630;2022-11-15T13:52:15;12.60;99.90
21568;DHT22;10944;42.590;12.630;2022-11-15T13:55:30;12.60;99.90
21568;DHT22;10944;42.590;12.630;2022-11-15T13:57:44;12.60;99.90
21568;DHT22;10944;42.590;12.630;2022-11-15T14:05:40;12.60;99.90
21568;DHT22;10944;42.590;12.630;2022-11-15T14:10:43;12.20;99.90
21568;DHT22;10944;42.590;12.630;2022-11-15T14:13:30;12.20;99.90
21568;DHT22;10944;42.590;12.630;2022-11-15T14:16:17;12.10;99.90
21568;DHT22;10944;42.590;12.630;2022-11-15T14:18:49;12.20;99.90
21568;DHT22;10944;42.590;12.630;2022-11-15T14:21:16;12.20;99.90
21568;DHT22;10944;42.590;12.630;2022-11-15T14:23:42;12.30;99.90
21568;DHT22;10944;42.590;12.630;2022-11-15T14:26:43;12.30;99.90
21568;DHT22;10944;42.590;12.630;2022-11-15T14:29:27;12.30;99.90
21568;DHT22;10944;42.590;12.630;2022-11-15T14:32:05;12.30;99.90
21568;DHT22;10944;42.590;12.630;2022-11-15T14:34:32;12.40;99.90
21568;DHT22;10944;42.590;12.630;2022-11-15T14:36:58;12.40;99.90
21568;DHT22;10944;42.590;12.630;2022-11-15T14:39:24;12.30;99.90
21568;DHT22;10944;42.590;12.630;2022-11-15T14:41:50;12.30;99.90
21568;DHT22;10944;42.590;12.630;2022-11-15T14:44:16;12.30;99.90
21568;DHT22;10944;42.590;12.630;2022-11-15T14:46:44;12.40;99.90
21568;DHT22;10944;42.590;12.630;2022-11-15T14:49:10;12.50;99.90
21568;DHT22;10944;42.590;12.630;2022-11-15T14:51:35;12.60;99.90
21568;DHT22;10944;42.590;12.630;2022-11-15T14:54:01;12.60;99.90
21568;DHT22;10944;42.590;12.630;2022-11-15T14:56:27;12.60;99.90
21568;DHT22;10944;42.590;12.630;2022-11-15T14:58:52;12.50;99.90
21568;DHT22;10944;42.590;12.630;2022-11-15T15:01:25;12.50;99.90
21568;DHT22;10944;42.590;12.630;2022-11-15T15:03:52;12.40;99.90
21568;DHT22;10944;42.590;12.630;2022-11-15T15:06:19;12.40;99.90
21568;DHT22;10944;42.590;12.630;2022-11-15T15:08:45;12.30;99.90
21568;DHT22;10944;42.590;12.630;2022-11-15T15:11:29;12.30;99.90
21568;DHT22;10944;42.590;12.630;2022-11-15T15:13:55;12.30;99.90
21568;DHT22;10944;42.590;12.630;2022-11-15T15:16:26;12.30;99.90
21568;DHT22;10944;42.590;12.630;2022-11-15T15:18:52;12.30;99.90
21568;DHT22;10944;42.590;12.630;2022-11-15T15:21:26;12.30;99.90
21568;DHT22;10944;42.590;12.630;2022-11-15T15:23:56;12.30;99.90
21568;DHT22;10944;42.590;12.630;2022-11-15T15:26:25;12.40;99.90
21568;DHT22;10944;42.590;12.630;2022-11-15T15:28:51;12.40;99.90
21568;DHT22;10944;42.590;12.630;2022-11-15T15:31:18;12.40;99.90
21568;DHT22;10944;42.590;12.630;2022-11-15T15:33:44;12.40;99.90
21568;DHT22;10944;42.590;12.630;2022-11-15T15:36:16;12.40;99.90
21568;DHT22;10944;42.590;12.630;2022-11-15T15:38:42;12.40;99.90
21568;DHT22;10944;42.590;12.630;2022-11-15T15:41:11;12.40;99.90
21568;DHT22;10944;42.590;12.630;2022-11-15T15:43:38;12.40;99.90
21568;DHT22;10944;42.590;12.630;2022-11-15T15:46:07;12.40;99.90
21568;DHT22;10944;42.590;12.630;2022-11-15T15:48:33;12.40;99.90
21568;DHT22;10944;42.590;12.630;2022-11-15T15:51:02;12.40;99.90
21568;DHT22;10944;42.590;12.630;2022-11-15T15:53:28;12.40;99.90
21568;DHT22;10944;42.590;12.630;2022-11-15T15:55:54;12.40;99.90
21568;DHT22;10944;42.590;12.630;2022-11-15T15:58:20;12.30;99.90
21568;DHT22;10944;42.590;12.630;2022-11-15T16:00:45;12.30;99.90
21568;DHT22;10944;42.590;12.630;2022-11-15T16:03:11;12.30;99.90
21568;DHT22;10944;42.590;12.630;2022-11-15T16:05:37;12.30;99.90
21568;DHT22;10944;42.590;12.630;2022-11-15T16:08:03;12.30;99.90
21568;DHT22;10944;42.590;12.630;2022-11-15T16:10:31;12.30;99.90
21568;DHT22;10944;42.590;12.630;2022-11-15T16:12:57;12.20;99.90
21568;DHT22;10944;42.590;12.630;2022-11-15T16:15:26;12.20;99.90
21568;DHT22;10944;42.590;12.630;2022-11-15T16:17:54;12.20;99.90
21568;DHT22;10944;42.590;12.630;2022-11-15T16:20:41;12.20;99.90
21568;DHT22;10944;42.590;12.630;2022-11-15T16:23:12;12.20;99.90
21568;DHT22;10944;42.590;12.630;2022-11-15T16:25:45;12.20;99.90
21568;DHT22;10944;42.590;12.630;2022-11-15T16:28:20;12.30;99.90
21568;DHT22;10944;42.590;12.630;2022-11-15T16:30:47;12.40;99.90
21568;DHT22;10944;42.590;12.630;2022-11-15T16:33:13;12.60;99.90
21568;DHT22;10944;42.590;12.630;2022-11-15T16:35:39;12.80;99.90
21568;DHT22;10944;42.590;12.630;2022-11-15T16:38:06;13.00;99.90
21568;DHT22;10944;42.590;12.630;2022-11-15T16:40:34;13.10;99.90
21568;DHT22;10944;42.590;12.630;2022-11-15T16:43:00;13.10;99.90
21568;DHT22;10944;42.590;12.630;2022-11-15T16:45:27;13.00;99.90
21568;DHT22;10944;42.590;12.630;2022-11-15T16:47:55;13.00;99.90
21568;DHT22;10944;42.590;12.630;2022-11-15T16:50:24;13.00;99.90
21568;DHT22;10944;42.590;12.630;2022-11-15T16:52:54;13.10;99.90
21568;DHT22;10944;42.590;12.630;2022-11-15T16:55:22;13.10;99.90
21568;DHT22;10944;42.590;12.630;2022-11-15T16:57:48;13.20;99.90
21568;DHT22;10944;42.590;12.630;2022-11-15T17:00:15;13.20;99.90
21568;DHT22;10944;42.590;12.630;2022-11-15T17:02:43;13.20;99.90
21568;DHT22;10944;42.590;12.630;2022-11-15T17:05:09;13.20;99.90
21568;DHT22;10944;42.590;12.630;2022-11-15T17:07:35;13.20;99.90
21568;DHT22;10944;42.590;12.630;2022-11-15T17:10:01;13.20;99.90
21568;DHT22;10944;42.590;12.630;2022-11-15T17:12:26;13.20;99.90
21568;DHT22;10944;42.590;12.630;2022-11-15T17:14:53;13.20;99.90
21568;DHT22;10944;42.590;12.630;2022-11-15T17:17:18;13.10;99.90
21568;DHT22;10944;42.590;12.630;2022-11-15T17:19:44;13.20;99.90
21568;DHT22;10944;42.590;12.630;2022-11-15T17:22:10;13.10;99.90
21568;DHT22;10944;42.590;12.630;2022-11-15T17:24:36;13.00;99.90
21568;DHT22;10944;42.590;12.630;2022-11-15T17:27:01;12.70;99.90
21568;DHT22;10944;42.590;12.630;2022-11-15T17:29:27;12.60;99.90
21568;DHT22;10944;42.590;12.630;2022-11-15T17:31:53;12.40;99.90
21568;DHT22;10944;42.590;12.630;2022-11-15T17:34:18;12.20;99.90
21568;DHT22;10944;42.590;12.630;2022-11-15T17:36:44;12.10;99.90
21568;DHT22;10944;42.590;12.630;2022-11-15T17:39:10;12.10;99.90
21568;DHT22;10944;42.590;12.630;2022-11-15T17:41:35;12.00;99.90
21568;DHT22;10944;42.590;12.630;2022-11-15T17:44:01;12.00;99.90
21568;DHT22;10944;42.590;12.630;2022-11-15T17:46:28;12.00;99.90